createdAt,value
2017-09-28T00:01:51.761Z,40.92
2017-09-28T00:04:19.213Z,40.33
2017-09-28T00:06:46.666Z,39.50
2017-09-28T00:09:14.110Z,39.17
2017-09-28T00:11:41.566Z,42.78
2017-09-28T00:14:09.018Z,38.60
2017-09-28T00:16:36.477Z,38.45
2017-09-28T00:19:03.941Z,38.70
2017-09-28T00:21:31.417Z,41.80
2017-09-28T00:23:58.870Z,41.67
2017-09-28T00:26:26.341Z,43.55
2017-09-28T00:28:53.794Z,40.45
2017-09-28T00:31:21.242Z,41.42
2017-09-28T00:33:48.694Z,41.72
2017-09-28T00:36:16.138Z,43.53
2017-09-28T00:38:43.591Z,42.40
2017-09-28T00:41:11.055Z,43.87
2017-09-28T00:43:38.506Z,43.75
2017-09-28T00:46:05.954Z,39.38
2017-09-28T00:48:33.418Z,40.95
2017-09-28T00:51:00.873Z,37.15
2017-09-28T00:53:28.339Z,37.85
2017-09-28T00:55:55.812Z,38.47
2017-09-28T00:58:23.263Z,38.42
2017-09-28T01:00:50.709Z,35.55
2017-09-28T01:03:18.175Z,39.00
2017-09-28T01:05:45.671Z,35.38
2017-09-28T01:08:13.945Z,37.35
2017-09-28T01:10:42.163Z,36.15
2017-09-28T01:13:09.609Z,39.35
2017-09-28T01:15:37.062Z,42.67
2017-09-28T01:18:04.522Z,37.38
2017-09-28T01:20:31.979Z,39.88
2017-09-28T01:22:59.438Z,38.17
2017-09-28T01:25:26.896Z,37.03
2017-09-28T01:27:54.360Z,36.63
2017-09-28T01:30:21.824Z,35.33
2017-09-28T01:32:49.287Z,38.15
2017-09-28T01:35:16.739Z,37.35
2017-09-28T01:37:44.189Z,37.53
2017-09-28T01:40:12.416Z,40.80
2017-09-28T01:42:39.863Z,38.20
2017-09-28T01:45:07.319Z,42.33
2017-09-28T01:47:34.766Z,38.47
2017-09-28T01:50:02.223Z,36.97
2017-09-28T01:52:29.672Z,40.63
2017-09-28T01:54:57.133Z,39.63
2017-09-28T01:57:24.590Z,37.97
2017-09-28T01:59:52.043Z,39.42
2017-09-28T02:02:19.500Z,37.97
2017-09-28T02:04:46.958Z,37.70
2017-09-28T02:07:14.417Z,37.17
2017-09-28T02:09:41.875Z,38.83
2017-09-28T02:12:09.331Z,39.95
2017-09-28T02:14:36.783Z,39.75
2017-09-28T02:17:04.266Z,42.25
2017-09-28T02:19:31.727Z,39.35
2017-09-28T02:21:59.198Z,42.10
2017-09-28T02:24:27.422Z,38.85
2017-09-28T02:26:54.885Z,41.55
2017-09-28T02:29:22.369Z,44.00
2017-09-28T02:31:49.816Z,40.53
2017-09-28T02:34:17.277Z,43.38
2017-09-28T02:36:44.743Z,39.28
2017-09-28T02:39:12.194Z,41.35
2017-09-28T02:41:39.651Z,42.75
2017-09-28T02:44:07.314Z,39.30
2017-09-28T02:46:34.762Z,43.03
2017-09-28T02:49:02.248Z,43.92
2017-09-28T02:51:29.733Z,44.95
2017-09-28T02:53:57.187Z,43.53
2017-09-28T02:56:24.854Z,41.55
2017-09-28T02:58:52.337Z,40.70
2017-09-28T03:01:19.898Z,40.33
2017-09-28T03:03:47.342Z,40.20
2017-09-28T03:06:14.796Z,40.25
2017-09-28T03:08:42.245Z,38.03
2017-09-28T03:11:09.706Z,44.13
2017-09-28T03:13:37.256Z,43.40
2017-09-28T03:16:04.833Z,43.03
2017-09-28T03:18:32.285Z,44.60
2017-09-28T03:20:59.743Z,44.17
2017-09-28T03:23:27.201Z,45.12
2017-09-28T03:25:54.697Z,45.63
2017-09-28T03:28:22.249Z,44.55
2017-09-28T03:30:49.725Z,46.95
2017-09-28T03:33:17.947Z,43.08
2017-09-28T03:35:45.430Z,44.88
2017-09-28T03:38:12.900Z,42.38
2017-09-28T03:40:40.367Z,40.08
2017-09-28T03:43:07.842Z,39.72
2017-09-28T03:45:35.298Z,45.90
2017-09-28T03:48:02.759Z,43.42
2017-09-28T03:50:30.204Z,41.35
2017-09-28T03:52:57.666Z,43.60
2017-09-28T03:55:25.129Z,44.92
2017-09-28T03:57:52.578Z,40.53
2017-09-28T04:00:20.032Z,39.33
2017-09-28T04:02:47.490Z,41.00
2017-09-28T04:05:14.954Z,43.20
2017-09-28T04:07:42.419Z,39.95
2017-09-28T04:10:09.868Z,37.60
2017-09-28T04:12:37.322Z,37.25
2017-09-28T04:15:04.775Z,40.53
2017-09-28T04:17:32.243Z,36.83
2017-09-28T04:19:59.711Z,37.35
2017-09-28T04:22:27.177Z,38.33
2017-09-28T04:24:54.650Z,39.58
2017-09-28T04:27:22.119Z,39.17
2017-09-28T04:29:49.598Z,39.42
2017-09-28T04:32:17.047Z,37.97
2017-09-28T04:34:44.533Z,35.75
2017-09-28T04:37:12.084Z,39.78
2017-09-28T04:39:39.626Z,36.65
2017-09-28T04:42:07.887Z,38.42
2017-09-28T04:44:35.362Z,34.70
2017-09-28T04:47:03.585Z,35.35
2017-09-28T04:49:31.077Z,37.28
2017-09-28T04:51:58.776Z,34.95
2017-09-28T04:54:26.243Z,35.70
2017-09-28T04:56:53.705Z,40.22
2017-09-28T04:59:21.155Z,37.75
2017-09-28T05:01:48.608Z,37.08
2017-09-28T05:04:16.333Z,40.00
2017-09-28T05:06:43.799Z,41.30
2017-09-28T05:09:11.258Z,43.97
2017-09-28T05:11:38.727Z,41.37
2017-09-28T05:14:06.945Z,43.55
2017-09-28T05:16:34.447Z,40.88
2017-09-28T05:19:02.000Z,40.47
2017-09-28T05:21:29.488Z,38.85
2017-09-28T05:23:57.007Z,41.55
2017-09-28T05:26:24.482Z,41.72
2017-09-28T05:28:52.773Z,41.90
2017-09-28T05:31:20.295Z,37.97
2017-09-28T05:33:47.776Z,39.72
2017-09-28T05:36:15.262Z,40.70
2017-09-28T05:38:42.790Z,39.58
2017-09-28T05:41:10.320Z,41.70
2017-09-28T05:43:37.806Z,35.20
2017-09-28T05:46:06.060Z,35.50
2017-09-28T05:48:33.558Z,37.75
2017-09-28T05:51:01.072Z,35.72
2017-09-28T05:53:28.558Z,36.47
2017-09-28T05:55:56.814Z,37.63
2017-09-28T05:58:24.305Z,37.90
2017-09-28T06:00:51.749Z,38.92
2017-09-28T06:03:19.296Z,38.50
2017-09-28T06:05:46.765Z,36.30
2017-09-28T06:08:14.608Z,37.85
2017-09-28T06:10:42.099Z,34.42
2017-09-28T06:13:09.587Z,33.63
2017-09-28T06:15:37.078Z,34.78
2017-09-28T06:18:04.585Z,32.88
2017-09-28T06:20:32.334Z,33.97
2017-09-28T06:22:59.793Z,34.25
2017-09-28T06:25:27.308Z,35.00
2017-09-28T06:27:54.802Z,33.67
2017-09-28T06:30:22.298Z,33.35
2017-09-28T06:32:49.779Z,34.97
2017-09-28T06:35:17.281Z,34.35
2017-09-28T06:37:44.746Z,32.40
2017-09-28T06:40:12.246Z,32.38
2017-09-28T06:42:39.745Z,31.30
2017-09-28T06:45:07.269Z,34.90
2017-09-28T06:47:34.773Z,33.90
2017-09-28T06:50:02.278Z,39.25
2017-09-28T06:52:29.753Z,35.10
2017-09-28T06:54:57.246Z,35.40
2017-09-28T06:57:24.754Z,34.88
2017-09-28T06:59:52.483Z,33.75
2017-09-28T07:02:20.237Z,35.47
2017-09-28T07:04:47.885Z,36.65
2017-09-28T07:07:15.409Z,36.00
2017-09-28T07:09:42.875Z,35.47
2017-09-28T07:12:10.334Z,40.55
2017-09-28T07:14:37.791Z,37.38
2017-09-28T07:17:05.266Z,37.58
2017-09-28T07:19:33.514Z,35.80
2017-09-28T07:22:00.976Z,33.47
2017-09-28T07:24:28.457Z,36.70
2017-09-28T07:26:56.738Z,34.53
2017-09-28T07:29:24.215Z,36.33
2017-09-28T07:31:51.668Z,38.83
2017-09-28T07:34:19.115Z,36.97
2017-09-28T07:36:46.566Z,35.63
2017-09-28T07:39:14.022Z,34.40
2017-09-28T07:41:41.491Z,39.80
2017-09-28T07:44:09.042Z,38.20
2017-09-28T07:46:36.550Z,39.75
2017-09-28T07:49:04.009Z,38.05
2017-09-28T07:51:31.479Z,36.45
2017-09-28T07:53:59.168Z,36.90
2017-09-28T07:56:26.726Z,37.38
2017-09-28T07:58:54.199Z,34.35
2017-09-28T08:01:21.658Z,31.08
2017-09-28T08:03:49.178Z,42.38
2017-09-28T08:06:16.654Z,36.47
2017-09-28T08:08:44.106Z,37.58
2017-09-28T08:11:11.620Z,38.85
2017-09-28T08:13:39.094Z,35.72
2017-09-28T08:16:06.578Z,34.83
2017-09-28T08:18:34.821Z,33.58
2017-09-28T08:21:02.315Z,37.55
2017-09-28T08:23:29.812Z,37.00
2017-09-28T08:25:57.297Z,37.33
2017-09-28T08:28:24.801Z,37.53
2017-09-28T08:30:52.298Z,38.45
2017-09-28T08:33:19.783Z,37.38
2017-09-28T08:35:48.050Z,41.63
2017-09-28T08:38:15.535Z,41.92
2017-09-28T08:40:43.062Z,39.60
2017-09-28T08:43:10.538Z,42.80
2017-09-28T08:45:38.788Z,35.42
2017-09-28T08:48:06.349Z,44.72
2017-09-28T08:50:33.855Z,37.47
2017-09-28T08:53:01.378Z,37.15
2017-09-28T08:55:28.864Z,39.45
2017-09-28T08:57:56.494Z,39.05
2017-09-28T09:00:23.980Z,37.30
2017-09-28T09:02:51.447Z,41.25
2017-09-28T09:05:18.942Z,41.13
2017-09-28T09:07:46.422Z,40.22
2017-09-28T09:10:13.906Z,42.90
2017-09-28T09:12:41.426Z,36.90
2017-09-28T09:15:08.939Z,40.25
2017-09-28T09:17:36.381Z,38.80
2017-09-28T09:20:03.932Z,37.80
2017-09-28T09:22:31.449Z,38.47
2017-09-28T09:24:58.948Z,38.22
2017-09-28T09:27:27.212Z,38.22
2017-09-28T09:29:54.682Z,37.28
2017-09-28T09:32:22.142Z,38.85
2017-09-28T09:34:49.615Z,38.55
2017-09-28T09:37:17.553Z,38.90
2017-09-28T09:39:45.021Z,43.63
2017-09-28T09:42:12.561Z,43.63
2017-09-28T09:44:40.839Z,40.67
2017-09-28T09:47:08.307Z,42.78
2017-09-28T09:49:36.594Z,43.08
2017-09-28T09:52:04.109Z,41.37
2017-09-28T09:54:31.605Z,47.33
2017-09-28T09:56:59.157Z,42.85
2017-09-28T09:59:27.421Z,46.28
2017-09-28T10:01:55.677Z,44.22
2017-09-28T10:04:23.170Z,45.47
2017-09-28T10:06:53.194Z,43.28
2017-09-28T10:09:22.081Z,42.77
2017-09-28T10:11:50.635Z,43.97
2017-09-28T10:14:19.589Z,42.50
2017-09-28T10:16:47.087Z,46.03
2017-09-28T10:19:14.575Z,46.33
2017-09-28T10:21:42.830Z,45.37
2017-09-28T10:24:10.286Z,43.93
2017-09-28T10:26:37.766Z,43.13
2017-09-28T10:29:05.271Z,40.43
2017-09-28T10:31:32.781Z,47.70
2017-09-28T10:34:00.255Z,47.27
2017-09-28T10:36:27.737Z,43.67
2017-09-28T10:38:55.257Z,43.17
2017-09-28T10:41:22.882Z,47.85
2017-09-28T10:43:50.367Z,42.27
2017-09-28T10:46:17.887Z,42.73
2017-09-28T10:48:45.378Z,41.43
2017-09-28T10:51:12.853Z,45.30
2017-09-28T10:53:40.317Z,44.70
2017-09-28T10:56:07.786Z,46.15
2017-09-28T10:58:35.270Z,47.08
2017-09-28T11:01:02.798Z,47.93
2017-09-28T11:03:30.273Z,48.70
2017-09-28T11:05:57.792Z,42.92
2017-09-28T11:08:25.357Z,46.13
2017-09-28T11:10:52.903Z,47.50
2017-09-28T11:13:20.368Z,48.45
2017-09-28T11:15:47.883Z,46.00
2017-09-28T11:18:15.366Z,48.03
2017-09-28T11:20:42.853Z,48.43
2017-09-28T11:23:10.342Z,45.00
2017-09-28T11:25:37.838Z,46.63
2017-09-28T11:28:06.091Z,46.50
2017-09-28T11:30:33.566Z,47.10
2017-09-28T11:33:01.069Z,50.12
2017-09-28T11:35:28.594Z,46.58
2017-09-28T11:37:56.825Z,44.42
2017-09-28T11:40:24.310Z,53.47
2017-09-28T11:42:51.784Z,45.47
2017-09-28T11:45:20.045Z,51.65
2017-09-28T11:47:47.506Z,46.55
2017-09-28T11:50:15.795Z,48.25
2017-09-28T11:52:43.289Z,45.30
2017-09-28T11:55:10.744Z,46.22
2017-09-28T11:57:38.274Z,46.67
2017-09-28T12:00:05.767Z,43.83
2017-09-28T12:02:33.276Z,48.87
2017-09-28T12:05:00.735Z,47.50
2017-09-28T12:07:28.997Z,41.92
2017-09-28T12:09:56.447Z,44.97
2017-09-28T12:12:23.931Z,45.10
2017-09-28T12:14:52.158Z,44.15
2017-09-28T12:17:19.639Z,57.17
2017-09-28T12:19:47.122Z,47.22
2017-09-28T12:22:15.347Z,47.05
2017-09-28T12:24:42.831Z,45.92
2017-09-28T12:27:11.071Z,40.15
2017-09-28T12:29:38.543Z,49.85
2017-09-28T12:32:06.017Z,46.47
2017-09-28T12:34:33.475Z,52.38
2017-09-28T12:37:00.947Z,48.47
2017-09-28T12:39:29.206Z,56.08
2017-09-28T12:41:56.666Z,49.22
2017-09-28T12:44:24.146Z,49.35
2017-09-28T12:46:51.621Z,52.80
2017-09-28T12:49:19.090Z,55.25
2017-09-28T12:51:46.564Z,48.83
2017-09-28T12:54:14.030Z,63.67
2017-09-28T12:56:41.497Z,53.22
2017-09-28T12:59:08.976Z,55.03
2017-09-28T13:01:37.211Z,56.63
2017-09-28T13:04:04.687Z,53.60
2017-09-28T13:06:32.151Z,55.15
2017-09-28T13:08:59.618Z,59.20
2017-09-28T13:11:27.090Z,54.25
2017-09-28T13:13:54.560Z,53.17
2017-09-28T13:16:22.026Z,47.20
2017-09-28T13:18:49.511Z,55.95
2017-09-28T13:21:16.974Z,56.03
2017-09-28T13:23:44.483Z,55.25
2017-09-28T13:26:12.722Z,56.63
2017-09-28T13:28:40.176Z,63.65
2017-09-28T13:31:07.642Z,54.13
2017-09-28T13:33:35.098Z,58.92
2017-09-28T13:36:02.554Z,62.60
2017-09-28T13:38:30.015Z,62.67
2017-09-28T13:40:57.478Z,57.92
2017-09-28T13:43:24.972Z,58.50
2017-09-28T13:45:52.435Z,59.17
2017-09-28T13:48:19.917Z,59.72
2017-09-28T13:50:47.382Z,63.55
2017-09-28T13:53:14.883Z,62.55
2017-09-28T13:55:42.323Z,58.15
2017-09-28T13:58:09.825Z,65.87
2017-09-28T14:00:37.799Z,66.37
2017-09-28T14:03:05.257Z,67.30
2017-09-28T14:05:32.747Z,63.53
2017-09-28T14:08:00.213Z,60.30
2017-09-28T14:10:28.490Z,61.20
2017-09-28T14:12:55.946Z,59.13
2017-09-28T14:15:23.412Z,65.18
2017-09-28T14:17:50.893Z,59.60
2017-09-28T14:20:18.381Z,57.90
2017-09-28T14:22:45.854Z,62.90
2017-09-28T14:25:13.333Z,62.62
2017-09-28T14:27:40.789Z,61.15
2017-09-28T14:30:08.253Z,63.60
2017-09-28T14:32:36.479Z,66.75
2017-09-28T14:35:03.958Z,66.32
2017-09-28T14:37:31.424Z,61.60
2017-09-28T14:39:58.890Z,59.13
2017-09-28T14:42:26.378Z,57.58
2017-09-28T14:44:53.858Z,59.40
2017-09-28T14:47:21.381Z,56.63
2017-09-28T14:49:49.617Z,60.22
2017-09-28T14:52:17.089Z,67.60
2017-09-28T14:54:44.571Z,58.65
2017-09-28T14:57:12.802Z,60.15
2017-09-28T14:59:40.334Z,64.00
2017-09-28T15:02:07.795Z,61.72
2017-09-28T15:04:35.251Z,56.88
2017-09-28T15:07:02.709Z,63.30
2017-09-28T15:09:30.185Z,73.00
2017-09-28T15:11:57.661Z,57.62
2017-09-28T15:14:25.151Z,63.42
2017-09-28T15:16:52.658Z,55.75
2017-09-28T15:19:20.119Z,62.97
2017-09-28T15:21:47.599Z,62.17
2017-09-28T15:24:15.081Z,61.10
2017-09-28T15:26:42.546Z,61.13
2017-09-28T15:29:10.023Z,69.05
2017-09-28T15:31:37.518Z,68.25
2017-09-28T15:34:05.014Z,59.92
2017-09-28T15:36:32.430Z,66.03
2017-09-28T15:38:59.952Z,58.60
2017-09-28T15:41:27.431Z,61.00
2017-09-28T15:43:54.894Z,62.83
2017-09-28T15:46:22.366Z,64.87
2017-09-28T15:48:49.851Z,57.83
2017-09-28T15:51:18.086Z,64.25
2017-09-28T15:53:45.561Z,58.55
2017-09-28T15:56:13.033Z,60.28
2017-09-28T15:58:41.274Z,57.67
2017-09-28T16:01:08.730Z,59.58
2017-09-28T16:03:36.210Z,57.08
2017-09-28T16:06:03.688Z,65.13
2017-09-28T16:08:31.928Z,66.10
2017-09-28T16:10:59.396Z,67.12
2017-09-28T16:13:26.849Z,59.88
2017-09-28T16:15:54.325Z,69.45
2017-09-28T16:18:22.589Z,60.58
2017-09-28T16:20:50.081Z,66.32
2017-09-28T16:23:17.600Z,58.22
2017-09-28T16:25:45.096Z,61.65
2017-09-28T16:28:12.626Z,63.03
2017-09-28T16:33:07.915Z,67.93
2017-09-28T16:35:35.402Z,68.32
2017-09-28T16:38:08.217Z,63.40
2017-09-28T16:40:35.973Z,57.55
2017-09-28T16:43:03.608Z,61.75
2017-09-28T16:45:31.069Z,70.87
2017-09-28T16:47:58.563Z,65.10
2017-09-28T16:50:26.065Z,62.47
2017-09-28T16:52:53.547Z,62.75
2017-09-28T16:55:22.131Z,79.70
2017-09-28T16:57:49.689Z,71.40
2017-09-28T17:00:17.175Z,63.83
2017-09-28T17:02:44.677Z,62.50
2017-09-28T17:05:12.184Z,68.65
2017-09-28T17:07:39.734Z,73.57
2017-09-28T17:10:07.868Z,68.82
2017-09-28T17:12:35.326Z,64.57
2017-09-28T17:15:02.813Z,68.57
2017-09-28T17:17:30.286Z,80.75
2017-09-28T17:19:57.774Z,72.22
2017-09-28T17:22:25.231Z,74.53
2017-09-28T17:24:52.708Z,68.22
2017-09-28T17:27:20.188Z,78.55
2017-09-28T17:29:47.682Z,68.22
2017-09-28T17:32:15.135Z,71.65
2017-09-28T17:34:42.589Z,71.30
2017-09-28T17:37:10.074Z,82.72
2017-09-28T17:39:37.551Z,73.90
2017-09-28T17:42:05.014Z,77.43
2017-09-28T17:44:32.495Z,78.12
2017-09-28T17:47:00.830Z,75.32
2017-09-28T17:49:28.531Z,80.10
2017-09-28T17:51:56.018Z,73.80
2017-09-28T17:54:23.563Z,72.37
2017-09-28T17:56:51.077Z,69.07
2017-09-28T17:59:18.521Z,72.87
2017-09-28T18:01:46.019Z,72.22
2017-09-28T18:04:13.489Z,70.32
2017-09-28T18:06:41.078Z,73.15
2017-09-28T18:09:08.559Z,71.12
2017-09-28T18:11:36.069Z,74.57
2017-09-28T18:14:03.630Z,74.03
2017-09-28T18:16:31.132Z,71.12
2017-09-28T18:18:58.704Z,77.35
2017-09-28T18:21:26.204Z,78.10
2017-09-28T18:23:53.836Z,82.60
2017-09-28T18:26:21.321Z,77.82
2017-09-28T18:28:48.823Z,81.50
2017-09-28T18:31:16.311Z,69.20
2017-09-28T18:33:44.070Z,73.93
2017-09-28T18:36:11.560Z,74.95
2017-09-28T18:38:39.011Z,82.15
2017-09-28T18:41:07.194Z,72.35
2017-09-28T18:43:34.954Z,78.20
2017-09-28T18:46:03.129Z,74.00
2017-09-28T18:48:30.594Z,77.40
2017-09-28T18:50:58.082Z,73.75
2017-09-28T18:53:25.580Z,81.20
2017-09-28T18:55:53.047Z,71.57
2017-09-28T18:58:20.597Z,73.40
2017-09-28T19:00:48.914Z,77.60
2017-09-28T19:03:16.359Z,73.32
2017-09-28T19:05:43.850Z,88.12
2017-09-28T19:08:11.310Z,81.32
2017-09-28T19:10:38.795Z,82.10
2017-09-28T19:13:06.270Z,80.45
2017-09-28T19:15:33.776Z,82.72
2017-09-28T19:18:01.268Z,78.97
2017-09-28T19:20:28.738Z,84.37
2017-09-28T19:22:56.355Z,85.80
2017-09-28T19:25:23.852Z,82.35
2017-09-28T19:27:52.211Z,77.25
2017-09-28T19:30:19.699Z,71.70
2017-09-28T19:32:47.366Z,86.57
2017-09-28T19:35:14.873Z,72.78
2017-09-28T19:37:42.396Z,73.87
2017-09-28T19:40:09.955Z,85.43
2017-09-28T19:42:37.462Z,84.18
2017-09-28T19:45:04.959Z,75.45
2017-09-28T19:47:32.905Z,77.80
2017-09-28T19:50:01.223Z,75.82
2017-09-28T19:52:28.762Z,76.75
2017-09-28T19:54:56.232Z,74.18
2017-09-28T19:57:23.763Z,79.43
2017-09-28T19:59:51.276Z,73.10
2017-09-28T20:02:18.773Z,78.55
2017-09-28T20:04:46.305Z,80.22
2017-09-28T20:07:13.874Z,77.82
2017-09-28T20:09:41.563Z,74.18
2017-09-28T20:12:09.234Z,75.43
2017-09-28T20:14:36.784Z,79.95
2017-09-28T20:17:05.888Z,82.88
2017-09-28T20:19:33.535Z,79.05
2017-09-28T20:22:01.838Z,85.80
2017-09-28T20:24:29.439Z,76.65
2017-09-28T20:26:56.948Z,88.60
2017-09-28T20:29:24.804Z,84.03
2017-09-28T20:31:52.733Z,81.97
2017-09-28T20:34:20.236Z,85.62
2017-09-28T20:36:47.814Z,86.95
2017-09-28T20:39:15.320Z,82.47
2017-09-28T20:41:42.879Z,92.53
2017-09-28T20:44:10.553Z,87.88
2017-09-28T20:46:38.225Z,79.43
2017-09-28T20:49:05.749Z,84.82
2017-09-28T20:51:33.255Z,87.82
2017-09-28T20:54:00.821Z,86.95
2017-09-28T20:56:28.388Z,87.62
2017-09-28T20:58:55.878Z,85.87
2017-09-28T21:01:23.448Z,85.35
2017-09-28T21:03:51.191Z,92.45
2017-09-28T21:06:18.654Z,86.25
2017-09-28T21:08:46.173Z,88.68
2017-09-28T21:11:14.434Z,88.47
2017-09-28T21:13:41.951Z,86.47
2017-09-28T21:16:09.473Z,88.95
2017-09-28T21:18:37.005Z,85.28
2017-09-28T21:21:04.584Z,79.32
2017-09-28T21:23:32.319Z,92.20
2017-09-28T21:26:00.016Z,77.55
2017-09-28T21:28:27.553Z,81.72
2017-09-28T21:30:56.002Z,86.10
2017-09-28T21:33:24.994Z,80.22
2017-09-28T21:35:53.261Z,78.60
2017-09-28T21:38:20.776Z,74.78
2017-09-28T21:40:48.292Z,84.93
2017-09-28T21:43:15.800Z,83.25
2017-09-28T21:45:43.338Z,73.35
2017-09-28T21:48:10.840Z,76.22
2017-09-28T21:50:38.306Z,72.10
2017-09-28T21:53:05.804Z,64.40
2017-09-28T21:55:33.575Z,70.05
2017-09-28T21:58:01.470Z,59.80
2017-09-28T22:00:28.977Z,60.42
2017-09-28T22:02:56.470Z,57.10
2017-09-28T22:05:23.978Z,62.53
2017-09-28T22:07:51.471Z,60.65
2017-09-28T22:10:18.996Z,69.53
2017-09-28T22:12:46.491Z,64.60
2017-09-28T22:15:13.966Z,59.45
2017-09-28T22:17:41.454Z,57.17
2017-09-28T22:20:08.956Z,61.80
2017-09-28T22:22:36.448Z,54.00
2017-09-28T22:25:03.962Z,59.30
2017-09-28T22:27:31.442Z,57.67
2017-09-28T22:29:58.906Z,59.05
2017-09-28T22:32:26.359Z,58.55
2017-09-28T22:34:53.822Z,57.13
2017-09-28T22:37:21.319Z,59.17
2017-09-28T22:39:48.805Z,56.63
2017-09-28T22:42:16.263Z,56.60
2017-09-28T22:44:44.495Z,52.85
2017-09-28T22:47:12.019Z,50.78
2017-09-28T22:49:39.479Z,50.33
2017-09-28T22:52:06.940Z,52.25
2017-09-28T22:54:34.461Z,52.47
2017-09-28T22:57:01.942Z,48.75
2017-09-28T22:59:29.470Z,48.95
2017-09-28T23:01:56.948Z,55.12
2017-09-28T23:04:24.421Z,51.88
2017-09-28T23:06:51.887Z,50.05
2017-09-28T23:09:19.397Z,51.88
2017-09-28T23:11:46.877Z,50.63
2017-09-28T23:14:15.147Z,53.30
2017-09-28T23:16:42.638Z,55.15
2017-09-28T23:19:10.111Z,52.15
2017-09-28T23:21:37.556Z,59.28
2017-09-28T23:24:05.005Z,53.33
2017-09-28T23:26:32.475Z,53.30
2017-09-28T23:28:59.941Z,48.97
2017-09-28T23:31:27.415Z,54.60
2017-09-28T23:33:54.880Z,48.80
2017-09-28T23:36:22.340Z,55.22
2017-09-28T23:38:49.797Z,56.88
2017-09-28T23:41:17.242Z,48.33
2017-09-28T23:43:44.703Z,52.22
2017-09-28T23:46:12.163Z,49.58
2017-09-28T23:48:39.615Z,47.83
2017-09-28T23:51:07.067Z,50.53
2017-09-28T23:53:34.521Z,51.35
2017-09-28T23:56:01.978Z,53.92
2017-09-28T23:58:29.450Z,51.75
